createdAt,value
2019-04-14T00:00:18.984Z,99104.25
2019-04-14T00:03:06.607Z,99105.73
2019-04-14T00:05:35.921Z,99105.11
2019-04-14T00:08:06.673Z,99102.69
2019-04-14T00:10:35.420Z,99106.37
2019-04-14T00:13:04.619Z,99101.37
2019-04-14T00:15:39.669Z,99101.38
2019-04-14T00:18:05.353Z,99100.66
2019-04-14T00:20:33.766Z,99102.02
2019-04-14T00:23:02.219Z,99100.81
2019-04-14T00:25:32.384Z,99101.31
2019-04-14T00:28:00.921Z,99103.38
2019-04-14T00:30:29.511Z,99101.84
2019-04-14T00:32:59.609Z,99100.14
2019-04-14T00:35:30.257Z,99097.47
2019-04-14T00:38:06.359Z,99095.88
2019-04-14T00:43:33.095Z,99087.64
2019-04-14T00:46:04.350Z,99086.68
2019-04-14T00:48:34.092Z,99084.49
2019-04-14T00:51:02.801Z,99084.73
2019-04-14T00:53:31.693Z,99083.17
2019-04-14T00:56:02.018Z,99091.94
2019-04-14T00:58:29.970Z,99086.45
2019-04-14T01:00:58.671Z,99084.14
2019-04-14T01:03:27.266Z,99086.22
2019-04-14T01:05:56.766Z,99082.92
2019-04-14T01:08:25.189Z,99086.33
2019-04-14T01:10:54.034Z,99086.81
2019-04-14T01:13:22.401Z,99089.48
2019-04-14T01:15:59.600Z,99084.63
2019-04-14T01:18:21.267Z,99088.04
2019-04-14T01:20:51.330Z,99087.56
2019-04-14T01:23:19.731Z,99086.97
2019-04-14T01:25:48.014Z,99093.39
2019-04-14T01:28:17.943Z,99097.40
2019-04-14T01:30:46.293Z,99102.27
2019-04-14T01:33:14.552Z,99103.97
2019-04-14T01:35:44.341Z,99107.11
2019-04-14T01:38:13.006Z,99109.30
2019-04-14T01:40:42.407Z,99109.42
2019-04-14T01:43:10.720Z,99114.06
2019-04-14T01:45:40.250Z,99110.16
2019-04-14T01:48:08.684Z,99117.32
2019-04-14T01:50:41.188Z,99112.09
2019-04-14T01:53:20.762Z,99116.73
2019-04-14T01:56:03.528Z,99121.81
2019-04-14T01:58:33.913Z,99123.02
2019-04-14T02:01:06.520Z,99119.76
2019-04-14T02:03:34.767Z,99125.32
2019-04-14T02:06:03.046Z,99127.50
2019-04-14T02:08:31.298Z,99135.86
2019-04-14T02:11:00.798Z,99127.98
2019-04-14T02:13:29.217Z,99130.28
2019-04-14T02:15:57.506Z,99132.59
2019-04-14T02:18:25.767Z,99126.16
2019-04-14T02:20:54.045Z,99126.13
2019-04-14T02:23:23.528Z,99126.16
2019-04-14T02:25:51.972Z,99123.23
2019-04-14T02:28:20.233Z,99124.31
2019-04-14T02:31:00.239Z,99121.79
2019-04-14T02:33:48.559Z,99122.14
2019-04-14T02:36:28.016Z,99125.52
2019-04-14T02:38:49.340Z,99122.74
2019-04-14T02:41:20.088Z,99124.03
2019-04-14T02:43:52.344Z,99129.00
2019-04-14T02:46:10.054Z,99122.81
2019-04-14T02:51:23.600Z,99129.34
2019-04-14T02:53:53.895Z,99132.74
2019-04-14T02:56:34.371Z,99130.14
2019-04-14T03:01:29.554Z,99130.16
2019-04-14T03:03:46.206Z,99128.14
2019-04-14T03:06:12.609Z,99127.80
2019-04-14T03:08:50.850Z,99124.11
2019-04-14T03:11:20.684Z,99122.97
2019-04-14T03:16:23.595Z,99119.03
2019-04-14T03:23:56.292Z,99134.52
2019-04-14T03:26:40.348Z,99127.42
2019-04-14T03:29:17.014Z,99126.66
2019-04-14T03:32:02.507Z,99119.75
2019-04-14T03:34:32.674Z,99121.50
2019-04-14T03:39:19.285Z,99124.48
2019-04-14T03:41:51.027Z,99125.65
2019-04-14T03:44:21.296Z,99129.09
2019-04-14T03:49:17.951Z,99133.64
2019-04-14T03:51:57.807Z,99135.31
2019-04-14T03:54:07.921Z,99138.56
2019-04-14T03:56:46.320Z,99136.83
2019-04-14T03:59:15.463Z,99134.16
2019-04-14T04:01:43.834Z,99132.03
2019-04-14T04:04:12.172Z,99127.08
2019-04-14T04:06:40.450Z,99139.81
2019-04-14T04:09:10.486Z,99135.23
2019-04-14T04:11:39.081Z,99132.78
2019-04-14T04:14:07.549Z,99129.38
2019-04-14T04:16:48.388Z,99130.59
2019-04-14T04:19:27.573Z,99132.58
2019-04-14T04:21:57.502Z,99131.32
2019-04-14T04:24:37.031Z,99131.45
2019-04-14T04:27:26.484Z,99136.55
2019-04-14T04:30:08.492Z,99137.64
2019-04-14T04:32:53.735Z,99145.73
2019-04-14T04:35:32.729Z,99149.47
2019-04-14T04:38:09.514Z,99151.06
2019-04-14T04:40:39.632Z,99147.55
2019-04-14T04:43:10.085Z,99157.45
2019-04-14T04:45:40.818Z,99157.42
2019-04-14T04:48:09.178Z,99153.97
2019-04-14T04:50:37.452Z,99161.12
2019-04-14T04:53:06.963Z,99160.81
2019-04-14T04:55:37.310Z,99156.64
2019-04-14T04:58:05.634Z,99150.15
2019-04-14T05:00:35.038Z,99160.68
2019-04-14T05:03:03.700Z,99158.83
2019-04-14T05:06:04.602Z,99163.07
2019-04-14T05:08:34.822Z,99170.79
2019-04-14T05:11:05.442Z,99163.75
2019-04-14T05:13:35.949Z,99171.30
2019-04-14T05:16:04.300Z,99174.61
2019-04-14T05:18:33.585Z,99175.66
2019-04-14T05:21:06.041Z,99173.64
2019-04-14T05:23:34.413Z,99176.17
2019-04-14T05:26:02.837Z,99179.50
2019-04-14T05:28:31.134Z,99176.59
2019-04-14T05:30:59.404Z,99175.25
2019-04-14T05:33:27.679Z,99172.88
2019-04-14T05:35:55.939Z,99185.77
2019-04-14T05:38:24.221Z,99181.90
2019-04-14T05:40:52.478Z,99179.85
2019-04-14T05:43:30.229Z,99178.52
2019-04-14T05:45:50.374Z,99179.20
2019-04-14T05:48:18.660Z,99187.72
2019-04-14T05:50:46.958Z,99186.06
2019-04-14T05:53:15.415Z,99182.43
2019-04-14T05:55:43.877Z,99185.69
2019-04-14T05:58:12.247Z,99191.88
2019-04-14T06:00:42.263Z,99192.70
2019-04-14T06:03:12.348Z,99199.77
2019-04-14T06:05:40.652Z,99204.98
2019-04-14T06:08:08.943Z,99199.73
2019-04-14T06:10:37.971Z,99198.39
2019-04-14T06:13:06.250Z,99204.92
2019-04-14T06:15:35.072Z,99203.58
2019-04-14T06:18:03.330Z,99206.63
2019-04-14T06:20:31.881Z,99213.42
2019-04-14T06:23:00.135Z,99213.30
2019-04-14T06:25:28.507Z,99218.92
2019-04-14T06:27:56.878Z,99214.65
2019-04-14T06:30:29.785Z,99214.08
2019-04-14T06:32:59.687Z,99213.95
2019-04-14T06:35:32.329Z,99213.36
2019-04-14T06:38:09.071Z,99207.05
2019-04-14T06:40:39.560Z,99205.63
2019-04-14T06:43:07.821Z,99199.55
2019-04-14T06:45:36.106Z,99203.19
2019-04-14T06:48:04.358Z,99207.46
2019-04-14T06:50:32.634Z,99198.81
2019-04-14T06:53:01.465Z,99205.38
2019-04-14T06:55:30.580Z,99205.02
2019-04-14T06:57:58.790Z,99205.01
2019-04-14T07:00:27.065Z,99198.44
2019-04-14T07:02:55.895Z,99202.44
2019-04-14T07:05:24.169Z,99204.70
2019-04-14T07:07:57.278Z,99207.73
2019-04-14T07:10:22.617Z,99206.17
2019-04-14T07:12:50.875Z,99215.20
2019-04-14T07:15:19.154Z,99212.53
2019-04-14T07:17:47.416Z,99213.33
2019-04-14T07:20:16.275Z,99214.45
2019-04-14T07:22:44.517Z,99215.77
2019-04-14T07:25:14.040Z,99216.95
2019-04-14T07:27:42.296Z,99220.79
2019-04-14T07:30:28.765Z,99221.80
2019-04-14T07:33:07.494Z,99222.17
2019-04-14T07:35:42.328Z,99228.08
2019-04-14T07:38:29.705Z,99226.58
2019-04-14T07:41:14.715Z,99228.55
2019-04-14T07:43:53.622Z,99232.30
2019-04-14T07:46:29.688Z,99232.66
2019-04-14T07:49:08.906Z,99239.82
2019-04-14T07:51:47.847Z,99236.05
2019-04-14T07:54:17.766Z,99229.88
2019-04-14T07:56:50.546Z,99221.70
2019-04-14T07:59:20.599Z,99221.17
2019-04-14T08:01:50.520Z,99216.44
2019-04-14T08:04:20.424Z,99224.00
2019-04-14T08:06:50.290Z,99218.59
2019-04-14T08:09:18.721Z,99220.37
2019-04-14T08:11:47.010Z,99223.42
2019-04-14T08:14:15.258Z,99219.86
2019-04-14T08:16:43.533Z,99218.08
2019-04-14T08:19:11.959Z,99226.20
2019-04-14T08:21:40.237Z,99225.15
2019-04-14T08:24:08.493Z,99225.29
2019-04-14T08:26:36.774Z,99224.42
2019-04-14T08:29:05.204Z,99220.80
2019-04-14T08:31:33.752Z,99230.11
2019-04-14T08:34:02.074Z,99225.73
2019-04-14T08:36:33.204Z,99232.73
2019-04-14T08:39:00.385Z,99235.47
2019-04-14T08:41:30.265Z,99229.46
2019-04-14T08:44:16.411Z,99230.98
2019-04-14T08:46:49.388Z,99235.47
2019-04-14T08:49:19.282Z,99237.31
2019-04-14T08:51:51.964Z,99237.31
2019-04-14T08:54:34.009Z,99233.68
2019-04-14T08:57:12.734Z,99227.94
2019-04-14T08:59:45.590Z,99227.56
2019-04-14T09:02:27.634Z,99236.88
2019-04-14T09:05:03.683Z,99234.42
2019-04-14T09:07:36.269Z,99230.61
2019-04-14T09:10:11.164Z,99242.09
2019-04-14T09:12:41.625Z,99239.52
2019-04-14T09:15:10.449Z,99234.31
2019-04-14T09:17:38.734Z,99235.83
2019-04-14T09:20:07.778Z,99238.36
2019-04-14T09:22:36.059Z,99236.81
2019-04-14T09:25:05.217Z,99240.57
2019-04-14T09:27:33.497Z,99244.34
2019-04-14T09:30:01.760Z,99238.41
2019-04-14T09:32:30.972Z,99238.72
2019-04-14T09:34:59.231Z,99242.98
2019-04-14T09:37:27.511Z,99249.50
2019-04-14T09:39:55.770Z,99234.63
2019-04-14T09:42:24.317Z,99239.98
2019-04-14T09:44:52.575Z,99237.52
2019-04-14T09:47:20.855Z,99246.60
2019-04-14T09:49:49.109Z,99247.09
2019-04-14T09:52:17.389Z,99245.30
2019-04-14T09:54:45.648Z,99242.66
2019-04-14T09:57:13.931Z,99240.18
2019-04-14T09:59:42.185Z,99247.54
2019-04-14T10:02:10.461Z,99248.03
2019-04-14T10:04:39.485Z,99249.80
2019-04-14T10:07:07.779Z,99244.96
2019-04-14T10:09:36.711Z,99249.89
2019-04-14T10:12:04.988Z,99258.92
2019-04-14T10:14:33.241Z,99258.95
2019-04-14T10:17:02.090Z,99259.09
2019-04-14T10:19:30.347Z,99259.32
2019-04-14T10:21:58.634Z,99265.76
2019-04-14T10:24:26.891Z,99262.84
2019-04-14T10:26:55.165Z,99264.64
2019-04-14T10:29:23.422Z,99266.14
2019-04-14T10:31:51.705Z,99264.28
2019-04-14T10:34:19.965Z,99269.23
2019-04-14T10:36:48.248Z,99272.67
2019-04-14T10:39:16.501Z,99277.05
2019-04-14T10:41:44.781Z,99271.44
2019-04-14T10:44:13.041Z,99275.05
2019-04-14T10:46:41.324Z,99280.44
2019-04-14T10:49:09.617Z,99279.18
2019-04-14T10:51:37.904Z,99277.47
2019-04-14T10:54:06.158Z,99282.50
2019-04-14T10:56:34.436Z,99282.28
2019-04-14T10:59:03.460Z,99276.08
2019-04-14T11:01:31.745Z,99281.19
2019-04-14T11:04:01.347Z,99280.84
2019-04-14T11:06:33.985Z,99282.99
2019-04-14T11:09:02.238Z,99286.50
2019-04-14T11:11:31.268Z,99282.54
2019-04-14T11:14:00.130Z,99271.75
2019-04-14T11:16:28.382Z,99278.03
2019-04-14T11:18:56.668Z,99262.16
2019-04-14T11:21:24.924Z,99275.63
2019-04-14T11:23:53.207Z,99281.06
2019-04-14T11:26:22.235Z,99276.58
2019-04-14T11:28:50.515Z,99271.53
2019-04-14T11:31:20.421Z,99279.23
2019-04-14T11:34:02.363Z,99269.14
2019-04-14T11:36:48.189Z,99274.78
2019-04-14T11:39:21.031Z,99276.63
2019-04-14T11:41:49.665Z,99281.84
2019-04-14T11:44:17.951Z,99281.34
2019-04-14T11:46:46.248Z,99284.47
2019-04-14T11:49:14.493Z,99279.19
2019-04-14T11:51:54.408Z,99275.13
2019-04-14T11:54:12.998Z,99272.00
2019-04-14T11:56:42.513Z,99276.25
2019-04-14T11:59:11.362Z,99283.08
2019-04-14T12:01:57.554Z,99285.95
2019-04-14T12:04:36.089Z,99281.03
2019-04-14T12:07:20.809Z,99287.95
2019-04-14T12:09:53.379Z,99286.06
2019-04-14T12:12:21.659Z,99289.00
2019-04-14T12:14:50.518Z,99297.73
2019-04-14T12:17:18.773Z,99287.72
2019-04-14T12:19:47.063Z,99300.48
2019-04-14T12:22:15.319Z,99301.38
2019-04-14T12:24:43.596Z,99296.70
2019-04-14T12:27:11.859Z,99298.39
2019-04-14T12:29:41.221Z,99304.41
2019-04-14T12:32:10.692Z,99298.50
2019-04-14T12:34:39.907Z,99303.20
2019-04-14T12:37:08.475Z,99297.09
2019-04-14T12:39:37.529Z,99301.14
2019-04-14T12:42:07.417Z,99309.81
2019-04-14T12:44:43.325Z,99313.59
2019-04-14T12:47:22.021Z,99316.84
2019-04-14T12:50:11.138Z,99307.95
2019-04-14T12:52:39.392Z,99309.16
2019-04-14T12:55:08.143Z,99310.45
2019-04-14T12:57:38.043Z,99311.92
2019-04-14T13:00:07.971Z,99315.83
2019-04-14T13:02:38.038Z,99313.73
2019-04-14T13:05:06.487Z,99316.95
2019-04-14T13:07:36.881Z,99318.88
2019-04-14T13:10:06.792Z,99316.45
2019-04-14T13:12:34.414Z,99318.52
2019-04-14T13:15:03.489Z,99312.61
2019-04-14T13:17:31.747Z,99314.14
2019-04-14T13:20:00.035Z,99318.09
2019-04-14T13:22:34.043Z,99320.05
2019-04-14T13:24:58.036Z,99321.05
2019-04-14T13:27:26.303Z,99319.87
2019-04-14T13:29:55.149Z,99319.97
2019-04-14T13:32:35.411Z,99324.89
2019-04-14T13:34:53.411Z,99321.48
2019-04-14T13:37:21.666Z,99324.17
2019-04-14T13:39:49.951Z,99324.73
2019-04-14T13:42:18.213Z,99328.66
2019-04-14T13:44:46.503Z,99326.73
2019-04-14T13:47:14.753Z,99325.19
2019-04-14T13:49:43.176Z,99325.13
2019-04-14T13:52:12.805Z,99328.98
2019-04-14T13:54:41.086Z,99326.01
2019-04-14T13:57:09.350Z,99317.08
2019-04-14T13:59:37.633Z,99313.06
2019-04-14T14:02:05.890Z,99314.48
2019-04-14T14:04:34.174Z,99308.70
2019-04-14T14:07:02.429Z,99309.75
2019-04-14T14:09:30.710Z,99317.98
2019-04-14T14:12:01.180Z,99308.70
2019-04-14T14:14:31.105Z,99306.50
2019-04-14T14:17:00.999Z,99305.94
2019-04-14T14:19:30.918Z,99311.73
2019-04-14T14:22:06.555Z,99312.80
2019-04-14T14:24:49.162Z,99310.33
2019-04-14T14:27:17.464Z,99305.16
2019-04-14T14:29:45.743Z,99302.26
2019-04-14T14:32:18.076Z,99301.24
2019-04-14T14:34:47.127Z,99300.91
2019-04-14T14:37:16.054Z,99300.16
2019-04-14T14:39:44.342Z,99303.41
2019-04-14T14:42:12.594Z,99300.55
2019-04-14T14:44:52.294Z,99305.73
2019-04-14T14:47:22.199Z,99310.61
2019-04-14T14:50:01.131Z,99307.50
2019-04-14T14:52:29.385Z,99310.61
2019-04-14T14:54:57.667Z,99303.23
2019-04-14T14:57:25.928Z,99306.77
2019-04-14T14:59:54.225Z,99310.58
2019-04-14T15:02:22.549Z,99310.38
2019-04-14T15:04:50.835Z,99308.12
2019-04-14T15:07:19.097Z,99312.06
2019-04-14T15:09:48.715Z,99308.66
2019-04-14T15:12:16.981Z,99307.31
2019-04-14T15:14:46.031Z,99310.30
2019-04-14T15:17:14.287Z,99303.22
2019-04-14T15:19:42.561Z,99318.54
2019-04-14T15:22:10.827Z,99319.45
2019-04-14T15:24:39.107Z,99318.70
2019-04-14T15:27:08.036Z,99308.06
2019-04-14T15:29:36.317Z,99319.53
2019-04-14T15:32:04.574Z,99318.01
2019-04-14T15:34:32.829Z,99309.22
2019-04-14T15:37:01.114Z,99324.02
2019-04-14T15:39:29.369Z,99318.56
2019-04-14T15:41:58.418Z,99319.38
2019-04-14T15:44:27.242Z,99319.86
2019-04-14T15:46:56.092Z,99320.99
2019-04-14T15:49:24.419Z,99322.09
2019-04-14T15:51:52.702Z,99320.41
2019-04-14T15:54:21.627Z,99322.29
2019-04-14T15:57:03.522Z,99322.29
2019-04-14T15:59:34.088Z,99316.66
2019-04-14T16:02:20.173Z,99318.70
2019-04-14T16:05:02.198Z,99319.84
2019-04-14T16:07:44.044Z,99315.98
2019-04-14T16:10:17.305Z,99325.10
2019-04-14T16:12:52.645Z,99314.30
2019-04-14T16:15:22.561Z,99320.33
2019-04-14T16:17:52.459Z,99320.51
2019-04-14T16:20:25.321Z,99315.32
2019-04-14T16:22:53.581Z,99316.30
2019-04-14T16:25:23.488Z,99319.34
2019-04-14T16:27:55.833Z,99321.82
2019-04-14T16:30:25.750Z,99321.67
2019-04-14T16:33:12.309Z,99319.68
2019-04-14T16:35:41.355Z,99318.44
2019-04-14T16:38:10.173Z,99321.31
2019-04-14T16:40:39.127Z,99319.11
2019-04-14T16:43:07.734Z,99320.87
2019-04-14T16:45:36.259Z,99322.80
2019-04-14T16:48:04.581Z,99324.63
2019-04-14T16:50:32.869Z,99324.82
2019-04-14T16:53:14.862Z,99330.80
2019-04-14T16:56:02.826Z,99332.43
2019-04-14T16:58:35.413Z,99340.84
2019-04-14T17:03:42.063Z,99347.28
2019-04-14T17:06:10.332Z,99354.08
2019-04-14T17:08:39.163Z,99350.95
2019-04-14T17:11:07.443Z,99358.72
2019-04-14T17:13:37.340Z,99355.50
2019-04-14T17:16:22.360Z,99355.63
2019-04-14T17:18:52.258Z,99351.84
2019-04-14T17:21:39.161Z,99354.08
2019-04-14T17:24:16.335Z,99363.84
2019-04-14T17:26:49.535Z,99362.86
2019-04-14T17:29:35.727Z,99362.55
2019-04-14T17:32:05.646Z,99368.72
2019-04-14T17:34:47.645Z,99368.68
2019-04-14T17:37:23.322Z,99368.40
2019-04-14T17:39:56.227Z,99375.87
2019-04-14T17:42:26.149Z,99371.53
2019-04-14T17:45:12.322Z,99381.38
2019-04-14T17:47:42.805Z,99380.60
2019-04-14T17:50:19.241Z,99378.13
2019-04-14T17:52:55.098Z,99379.14
2019-04-14T17:55:25.047Z,99389.39
2019-04-14T17:57:55.088Z,99392.28
2019-04-14T18:00:41.704Z,99394.27
2019-04-14T18:03:14.594Z,99398.75
2019-04-14T18:05:44.504Z,99398.75
2019-04-14T18:08:26.607Z,99402.37
2019-04-14T18:11:12.688Z,99404.23
2019-04-14T18:13:48.524Z,99402.33
2019-04-14T18:16:24.619Z,99404.65
2019-04-14T18:19:06.583Z,99408.63
2019-04-14T18:21:35.637Z,99408.76
2019-04-14T18:24:04.067Z,99413.52
2019-04-14T18:26:32.322Z,99412.90
2019-04-14T18:29:18.564Z,99415.83
2019-04-14T18:31:48.486Z,99422.70
2019-04-14T18:34:21.121Z,99425.05
2019-04-14T18:36:54.667Z,99426.03
2019-04-14T18:39:40.437Z,99432.22
2019-04-14T18:42:10.384Z,99433.16
2019-04-14T18:44:46.121Z,99434.53
2019-04-14T18:47:22.737Z,99439.14
2019-04-14T18:50:02.409Z,99439.47
2019-04-14T18:52:41.130Z,99446.02
2019-04-14T18:55:29.046Z,99441.17
2019-04-14T18:58:02.220Z,99442.77
2019-04-14T19:00:38.337Z,99450.61
2019-04-14T19:03:06.620Z,99451.43
2019-04-14T19:05:34.880Z,99451.09
2019-04-14T19:08:03.161Z,99457.74
2019-04-14T19:10:31.417Z,99462.14
2019-04-14T19:13:11.030Z,99456.64
2019-04-14T19:15:44.077Z,99467.23
2019-04-14T19:18:16.714Z,99462.63
2019-04-14T19:20:47.181Z,99465.03
2019-04-14T19:23:16.126Z,99466.01
2019-04-14T19:25:44.382Z,99472.69
2019-04-14T19:28:13.230Z,99467.59
2019-04-14T19:30:41.493Z,99470.85
2019-04-14T19:33:10.549Z,99469.79
2019-04-14T19:35:38.801Z,99467.72
2019-04-14T19:38:07.993Z,99468.53
2019-04-14T19:40:36.245Z,99467.52
2019-04-14T19:43:04.519Z,99464.80
2019-04-14T19:45:32.785Z,99464.10
2019-04-14T19:48:01.060Z,99473.67
2019-04-14T19:50:29.314Z,99468.41
2019-04-14T19:52:57.598Z,99472.44
2019-04-14T19:55:25.849Z,99473.33
2019-04-14T19:57:54.125Z,99468.45
2019-04-14T20:00:22.452Z,99472.73
2019-04-14T20:02:50.735Z,99474.92
2019-04-14T20:05:19.000Z,99473.87
2019-04-14T20:07:47.278Z,99479.77
2019-04-14T20:10:15.540Z,99473.42
2019-04-14T20:12:43.793Z,99474.03
2019-04-14T20:15:13.709Z,99478.06
2019-04-14T20:17:43.626Z,99479.16
2019-04-14T20:20:29.834Z,99481.03
2019-04-14T20:23:02.772Z,99479.77
2019-04-14T20:25:41.118Z,99480.50
2019-04-14T20:28:29.732Z,99475.63
2019-04-14T20:30:59.631Z,99472.70
2019-04-14T20:33:27.984Z,99472.61
2019-04-14T20:35:56.241Z,99468.17
2019-04-14T20:38:24.518Z,99472.45
2019-04-14T20:40:52.780Z,99476.77
2019-04-14T20:43:21.060Z,99467.77
2019-04-14T20:45:49.318Z,99469.67
2019-04-14T20:48:17.603Z,99468.41
2019-04-14T20:50:45.931Z,99473.88
2019-04-14T20:53:14.985Z,99472.28
2019-04-14T20:55:47.177Z,99463.98
2019-04-14T20:58:13.304Z,99464.55
2019-04-14T21:00:41.582Z,99467.31
2019-04-14T21:03:17.424Z,99467.73
2019-04-14T21:05:47.345Z,99470.49
2019-04-14T21:08:26.369Z,99469.47
2019-04-14T21:11:05.541Z,99469.67
2019-04-14T21:13:35.459Z,99476.80
2019-04-14T21:16:12.510Z,99473.95
2019-04-14T21:18:55.051Z,99485.84
2019-04-14T21:21:41.169Z,99485.88
2019-04-14T21:24:11.095Z,99486.58
2019-04-14T21:26:56.002Z,99482.18
2019-04-14T21:29:25.929Z,99482.30
2019-04-14T21:31:55.831Z,99485.88
2019-04-14T21:34:31.962Z,99484.09
2019-04-14T21:37:02.635Z,99482.37
2019-04-14T21:39:49.374Z,99483.11
2019-04-14T21:42:18.408Z,99489.87
2019-04-14T21:44:47.359Z,99493.53
2019-04-14T21:47:15.619Z,99496.13
2019-04-14T21:49:43.903Z,99492.39
2019-04-14T21:52:13.799Z,99498.22
2019-04-14T21:54:43.548Z,99498.54
2019-04-14T21:57:13.453Z,99499.23
2019-04-14T21:59:43.368Z,99504.04
2019-04-14T22:02:29.198Z,99506.03
2019-04-14T22:05:10.964Z,99501.63
2019-04-14T22:07:40.863Z,99513.11
2019-04-14T22:10:10.778Z,99509.98
2019-04-14T22:12:39.319Z,99510.76
2019-04-14T22:15:08.638Z,99516.33
2019-04-14T22:17:36.900Z,99510.02
2019-04-14T22:20:06.015Z,99516.38
2019-04-14T22:22:35.047Z,99523.30
2019-04-14T22:25:03.616Z,99523.66
2019-04-14T22:27:31.859Z,99527.25
2019-04-14T22:30:00.140Z,99523.30
2019-04-14T22:32:28.408Z,99518.73
2019-04-14T22:34:56.711Z,99522.16
2019-04-14T22:37:25.629Z,99527.16
2019-04-14T22:39:53.905Z,99527.56
2019-04-14T22:42:22.155Z,99531.63
2019-04-14T22:44:50.431Z,99533.96
2019-04-14T22:47:18.700Z,99528.67
2019-04-14T22:49:46.985Z,99526.63
2019-04-14T22:52:15.317Z,99529.67
2019-04-14T22:54:44.162Z,99532.53
2019-04-14T22:57:13.186Z,99530.13
2019-04-14T22:59:41.471Z,99533.15
2019-04-14T23:02:14.012Z,99538.28
2019-04-14T23:04:53.164Z,99537.82
2019-04-14T23:07:29.173Z,99539.98
2019-04-14T23:10:04.768Z,99533.15
2019-04-14T23:12:40.716Z,99526.55
2019-04-14T23:15:20.374Z,99526.26
2019-04-14T23:18:02.651Z,99526.70
2019-04-14T23:20:47.732Z,99528.82
2019-04-14T23:23:23.886Z,99530.81
2019-04-14T23:25:52.167Z,99533.52
2019-04-14T23:28:20.432Z,99536.45
2019-04-14T23:30:48.712Z,99534.50
2019-04-14T23:33:17.806Z,99530.56
2019-04-14T23:35:46.088Z,99534.33
2019-04-14T23:38:14.341Z,99525.81
2019-04-14T23:40:43.197Z,99525.73
2019-04-14T23:43:11.615Z,99526.18
2019-04-14T23:45:39.896Z,99515.99
2019-04-14T23:48:09.003Z,99519.38
2019-04-14T23:50:37.277Z,99516.69
2019-04-14T23:53:05.537Z,99517.62
2019-04-14T23:55:33.816Z,99516.77
2019-04-14T23:58:02.076Z,99514.77
